sensor_id;sensor_type;location;lat;lon;timestamp;pressure;altitude;pressure_sealevel;temperature;humidity
61436;BME280;47304;47.456;19.160;2023-02-27T00:01:16;100263.61;;;1.00;50.98
61436;BME280;47304;47.456;19.160;2023-02-27T00:03:42;100274.33;;;0.96;51.31
61436;BME280;47304;47.456;19.160;2023-02-27T00:06:09;100280.85;;;0.95;51.42
61436;BME280;47304;47.456;19.160;2023-02-27T00:08:35;100287.89;;;0.93;51.30
61436;BME280;47304;47.456;19.160;2023-02-27T00:11:02;100294.38;;;0.92;51.29
61436;BME280;47304;47.456;19.160;2023-02-27T00:13:29;100294.63;;;0.89;51.41
61436;BME280;47304;47.456;19.160;2023-02-27T00:15:56;100296.59;;;0.86;51.39
61436;BME280;47304;47.456;19.160;2023-02-27T00:18:22;100295.52;;;0.85;51.43
61436;BME280;47304;47.456;19.160;2023-02-27T00:20:49;100300.98;;;0.84;51.43
61436;BME280;47304;47.456;19.160;2023-02-27T00:23:15;100307.95;;;0.81;51.51
61436;BME280;47304;47.456;19.160;2023-02-27T00:25:42;100307.16;;;0.78;51.46
61436;BME280;47304;47.456;19.160;2023-02-27T00:28:09;100306.59;;;0.77;51.74
61436;BME280;47304;47.456;19.160;2023-02-27T00:30:35;100312.55;;;0.74;51.69
61436;BME280;47304;47.456;19.160;2023-02-27T00:33:02;100307.77;;;0.72;51.78
61436;BME280;47304;47.456;19.160;2023-02-27T00:35:29;100312.70;;;0.70;51.75
61436;BME280;47304;47.456;19.160;2023-02-27T00:37:55;100315.52;;;0.67;51.80
61436;BME280;47304;47.456;19.160;2023-02-27T00:40:22;100316.94;;;0.63;51.90
61436;BME280;47304;47.456;19.160;2023-02-27T00:42:48;100316.11;;;0.60;51.92
61436;BME280;47304;47.456;19.160;2023-02-27T00:45:15;100314.59;;;0.56;52.05
61436;BME280;47304;47.456;19.160;2023-02-27T00:47:41;100319.53;;;0.55;52.16
61436;BME280;47304;47.456;19.160;2023-02-27T00:50:09;100326.02;;;0.53;52.52
61436;BME280;47304;47.456;19.160;2023-02-27T00:52:36;100328.08;;;0.53;52.40
61436;BME280;47304;47.456;19.160;2023-02-27T00:55:02;100330.46;;;0.52;52.56
61436;BME280;47304;47.456;19.160;2023-02-27T00:57:29;100331.95;;;0.51;52.30
61436;BME280;47304;47.456;19.160;2023-02-27T00:59:56;100335.88;;;0.49;52.20
61436;BME280;47304;47.456;19.160;2023-02-27T01:02:22;100343.94;;;0.49;52.17
61436;BME280;47304;47.456;19.160;2023-02-27T01:04:49;100343.33;;;0.46;52.24
61436;BME280;47304;47.456;19.160;2023-02-27T01:07:16;100346.56;;;0.45;52.20
61436;BME280;47304;47.456;19.160;2023-02-27T01:09:42;100349.60;;;0.44;52.38
61436;BME280;47304;47.456;19.160;2023-02-27T01:12:09;100347.83;;;0.42;52.56
61436;BME280;47304;47.456;19.160;2023-02-27T01:14:36;100352.84;;;0.42;52.61
61436;BME280;47304;47.456;19.160;2023-02-27T01:17:02;100349.39;;;0.42;52.34
61436;BME280;47304;47.456;19.160;2023-02-27T01:19:29;100348.65;;;0.41;52.34
61436;BME280;47304;47.456;19.160;2023-02-27T01:21:55;100346.38;;;0.41;52.36
61436;BME280;47304;47.456;19.160;2023-02-27T01:24:22;100342.98;;;0.41;52.36
61436;BME280;47304;47.456;19.160;2023-02-27T01:26:48;100346.64;;;0.43;52.40
61436;BME280;47304;47.456;19.160;2023-02-27T01:29:15;100341.65;;;0.43;52.09
61436;BME280;47304;47.456;19.160;2023-02-27T01:31:41;100345.66;;;0.44;51.90
61436;BME280;47304;47.456;19.160;2023-02-27T01:34:08;100348.78;;;0.45;52.07
61436;BME280;47304;47.456;19.160;2023-02-27T01:36:34;100346.61;;;0.46;51.83
61436;BME280;47304;47.456;19.160;2023-02-27T01:39:01;100348.66;;;0.46;51.76
61436;BME280;47304;47.456;19.160;2023-02-27T01:41:27;100349.46;;;0.44;51.77
61436;BME280;47304;47.456;19.160;2023-02-27T01:44:03;100351.69;;;0.44;51.85
61436;BME280;47304;47.456;19.160;2023-02-27T01:46:31;100352.88;;;0.43;51.98
61436;BME280;47304;47.456;19.160;2023-02-27T01:49:06;100355.66;;;0.44;52.08
61436;BME280;47304;47.456;19.160;2023-02-27T01:51:37;100356.02;;;0.44;52.04
61436;BME280;47304;47.456;19.160;2023-02-27T01:54:06;100353.11;;;0.45;52.01
61436;BME280;47304;47.456;19.160;2023-02-27T01:56:35;100351.60;;;0.45;52.10
61436;BME280;47304;47.456;19.160;2023-02-27T01:59:03;100352.66;;;0.47;52.17
61436;BME280;47304;47.456;19.160;2023-02-27T02:01:32;100357.86;;;0.48;52.25
61436;BME280;47304;47.456;19.160;2023-02-27T02:04:11;100363.02;;;0.47;52.33
61436;BME280;47304;47.456;19.160;2023-02-27T02:06:44;100369.38;;;0.47;52.35
61436;BME280;47304;47.456;19.160;2023-02-27T02:09:13;100371.09;;;0.46;52.44
61436;BME280;47304;47.456;19.160;2023-02-27T02:11:40;100375.05;;;0.46;52.41
61436;BME280;47304;47.456;19.160;2023-02-27T02:14:07;100375.42;;;0.46;52.62
61436;BME280;47304;47.456;19.160;2023-02-27T02:17:04;100379.45;;;0.49;52.49
61436;BME280;47304;47.456;19.160;2023-02-27T02:29:48;100399.45;;;0.53;51.44
61436;BME280;47304;47.456;19.160;2023-02-27T02:43:11;100409.73;;;0.65;50.63
61436;BME280;47304;47.456;19.160;2023-02-27T02:45:49;100413.12;;;0.67;50.65
61436;BME280;47304;47.456;19.160;2023-02-27T02:48:52;100406.98;;;0.69;50.21
61436;BME280;47304;47.456;19.160;2023-02-27T02:56:41;100415.73;;;0.76;50.32
61436;BME280;47304;47.456;19.160;2023-02-27T02:59:21;100418.09;;;0.79;50.19
61436;BME280;47304;47.456;19.160;2023-02-27T03:02:01;100414.56;;;0.82;50.37
61436;BME280;47304;47.456;19.160;2023-02-27T03:07:34;100411.80;;;0.86;49.73
61436;BME280;47304;47.456;19.160;2023-02-27T03:12:36;100416.66;;;0.91;49.47
61436;BME280;47304;47.456;19.160;2023-02-27T03:15:11;100425.37;;;0.93;49.60
61436;BME280;47304;47.456;19.160;2023-02-27T03:20:40;100426.24;;;0.98;49.64
61436;BME280;47304;47.456;19.160;2023-02-27T03:23:11;100430.30;;;1.01;49.52
61436;BME280;47304;47.456;19.160;2023-02-27T03:25:39;100438.02;;;1.03;49.63
61436;BME280;47304;47.456;19.160;2023-02-27T03:28:09;100432.70;;;1.04;49.44
61436;BME280;47304;47.456;19.160;2023-02-27T03:30:47;100433.10;;;1.06;49.40
61436;BME280;47304;47.456;19.160;2023-02-27T03:33:26;100441.78;;;1.07;49.44
61436;BME280;47304;47.456;19.160;2023-02-27T03:36:32;100445.79;;;1.08;49.29
61436;BME280;47304;47.456;19.160;2023-02-27T03:39:10;100442.25;;;1.10;49.17
61436;BME280;47304;47.456;19.160;2023-02-27T03:41:48;100446.02;;;1.10;49.05
61436;BME280;47304;47.456;19.160;2023-02-27T03:44:30;100448.40;;;1.09;49.10
61436;BME280;47304;47.456;19.160;2023-02-27T03:46:58;100452.34;;;1.08;49.17
61436;BME280;47304;47.456;19.160;2023-02-27T03:49:25;100452.68;;;1.08;49.16
61436;BME280;47304;47.456;19.160;2023-02-27T03:51:52;100453.28;;;1.06;48.72
61436;BME280;47304;47.456;19.160;2023-02-27T03:54:31;100458.42;;;1.00;48.40
61436;BME280;47304;47.456;19.160;2023-02-27T03:57:02;100462.63;;;0.98;48.66
61436;BME280;47304;47.456;19.160;2023-02-27T03:59:29;100460.19;;;0.97;48.94
61436;BME280;47304;47.456;19.160;2023-02-27T04:01:58;100460.23;;;0.98;48.86
61436;BME280;47304;47.456;19.160;2023-02-27T04:04:27;100463.21;;;1.00;48.72
61436;BME280;47304;47.456;19.160;2023-02-27T04:06:57;100460.64;;;1.00;48.64
61436;BME280;47304;47.456;19.160;2023-02-27T04:10:13;100463.60;;;1.00;48.40
61436;BME280;47304;47.456;19.160;2023-02-27T04:20:38;100466.02;;;1.05;48.12
61436;BME280;47304;47.456;19.160;2023-02-27T04:23:20;100464.88;;;1.06;48.04
61436;BME280;47304;47.456;19.160;2023-02-27T04:26:41;100468.98;;;1.06;47.79
61436;BME280;47304;47.456;19.160;2023-02-27T04:29:01;100467.94;;;1.05;47.80
61436;BME280;47304;47.456;19.160;2023-02-27T04:34:23;100475.92;;;1.06;47.90
61436;BME280;47304;47.456;19.160;2023-02-27T04:36:57;100473.84;;;1.06;47.68
61436;BME280;47304;47.456;19.160;2023-02-27T04:39:32;100478.84;;;1.06;47.57
61436;BME280;47304;47.456;19.160;2023-02-27T04:42:05;100475.74;;;1.06;47.56
61436;BME280;47304;47.456;19.160;2023-02-27T04:44:35;100480.17;;;1.05;47.68
61436;BME280;47304;47.456;19.160;2023-02-27T04:47:05;100478.80;;;1.05;47.59
61436;BME280;47304;47.456;19.160;2023-02-27T04:49:46;100477.60;;;1.05;47.64
61436;BME280;47304;47.456;19.160;2023-02-27T04:52:19;100478.77;;;1.05;47.42
61436;BME280;47304;47.456;19.160;2023-02-27T04:54:55;100485.07;;;1.02;47.25
61436;BME280;47304;47.456;19.160;2023-02-27T04:57:30;100490.20;;;1.01;47.42
61436;BME280;47304;47.456;19.160;2023-02-27T04:59:58;100493.89;;;0.99;47.37
61436;BME280;47304;47.456;19.160;2023-02-27T05:02:32;100489.69;;;0.97;47.34
61436;BME280;47304;47.456;19.160;2023-02-27T05:05:05;100491.68;;;0.95;47.30
61436;BME280;47304;47.456;19.160;2023-02-27T05:07:59;100496.30;;;0.94;47.52
61436;BME280;47304;47.456;19.160;2023-02-27T05:13:01;100506.87;;;0.91;47.58
61436;BME280;47304;47.456;19.160;2023-02-27T05:15:33;100515.20;;;0.92;47.50
61436;BME280;47304;47.456;19.160;2023-02-27T05:18:04;100515.55;;;0.92;47.59
61436;BME280;47304;47.456;19.160;2023-02-27T05:23:12;100516.50;;;0.95;47.42
61436;BME280;47304;47.456;19.160;2023-02-27T05:26:03;100521.38;;;0.96;47.37
61436;BME280;47304;47.456;19.160;2023-02-27T05:28:58;100526.57;;;0.96;47.09
61436;BME280;47304;47.456;19.160;2023-02-27T05:31:34;100531.08;;;0.97;47.21
61436;BME280;47304;47.456;19.160;2023-02-27T05:34:06;100534.61;;;0.99;47.31
61436;BME280;47304;47.456;19.160;2023-02-27T05:36:40;100532.32;;;0.98;47.19
61436;BME280;47304;47.456;19.160;2023-02-27T05:39:09;100536.40;;;0.96;47.26
61436;BME280;47304;47.456;19.160;2023-02-27T05:41:41;100542.09;;;0.96;47.31
61436;BME280;47304;47.456;19.160;2023-02-27T05:44:14;100551.15;;;0.98;47.57
61436;BME280;47304;47.456;19.160;2023-02-27T05:46:45;100553.23;;;0.98;47.36
61436;BME280;47304;47.456;19.160;2023-02-27T05:51:52;100554.21;;;1.01;47.54
61436;BME280;47304;47.456;19.160;2023-02-27T05:54:38;100558.45;;;1.03;47.58
61436;BME280;47304;47.456;19.160;2023-02-27T05:57:10;100553.59;;;1.03;47.46
61436;BME280;47304;47.456;19.160;2023-02-27T06:02:50;100567.67;;;1.05;47.63
61436;BME280;47304;47.456;19.160;2023-02-27T06:05:17;100572.04;;;1.07;47.68
61436;BME280;47304;47.456;19.160;2023-02-27T06:07:44;100573.70;;;1.09;47.58
61436;BME280;47304;47.456;19.160;2023-02-27T06:10:18;100576.41;;;1.13;47.65
61436;BME280;47304;47.456;19.160;2023-02-27T06:12:45;100584.11;;;1.15;47.63
61436;BME280;47304;47.456;19.160;2023-02-27T06:15:11;100586.43;;;1.17;47.43
61436;BME280;47304;47.456;19.160;2023-02-27T06:17:38;100594.33;;;1.20;47.48
61436;BME280;47304;47.456;19.160;2023-02-27T06:20:06;100597.66;;;1.21;47.27
61436;BME280;47304;47.456;19.160;2023-02-27T06:22:33;100604.98;;;1.24;47.44
61436;BME280;47304;47.456;19.160;2023-02-27T06:25:00;100606.85;;;1.27;47.64
61436;BME280;47304;47.456;19.160;2023-02-27T06:27:26;100613.08;;;1.31;47.46
61436;BME280;47304;47.456;19.160;2023-02-27T06:29:53;100620.47;;;1.35;47.36
61436;BME280;47304;47.456;19.160;2023-02-27T06:32:20;100628.94;;;1.39;47.42
61436;BME280;47304;47.456;19.160;2023-02-27T06:34:47;100637.61;;;1.45;47.04
61436;BME280;47304;47.456;19.160;2023-02-27T06:37:13;100645.74;;;1.49;46.87
61436;BME280;47304;47.456;19.160;2023-02-27T06:39:40;100648.77;;;1.55;46.50
61436;BME280;47304;47.456;19.160;2023-02-27T06:42:06;100650.75;;;1.62;46.35
61436;BME280;47304;47.456;19.160;2023-02-27T06:44:33;100654.08;;;1.67;46.30
61436;BME280;47304;47.456;19.160;2023-02-27T06:47:00;100659.21;;;1.75;45.89
61436;BME280;47304;47.456;19.160;2023-02-27T06:49:26;100664.91;;;1.84;46.10
61436;BME280;47304;47.456;19.160;2023-02-27T06:51:53;100664.41;;;1.94;45.97
61436;BME280;47304;47.456;19.160;2023-02-27T06:54:19;100668.38;;;2.02;45.39
61436;BME280;47304;47.456;19.160;2023-02-27T06:56:46;100677.05;;;2.07;45.25
61436;BME280;47304;47.456;19.160;2023-02-27T06:59:12;100673.39;;;2.11;44.84
61436;BME280;47304;47.456;19.160;2023-02-27T07:01:39;100675.88;;;2.13;44.62
61436;BME280;47304;47.456;19.160;2023-02-27T07:04:05;100680.11;;;2.15;44.44
61436;BME280;47304;47.456;19.160;2023-02-27T07:06:32;100680.45;;;2.19;44.55
61436;BME280;47304;47.456;19.160;2023-02-27T07:09:18;100679.91;;;2.28;44.44
61436;BME280;47304;47.456;19.160;2023-02-27T07:11:45;100682.91;;;2.39;44.44
61436;BME280;47304;47.456;19.160;2023-02-27T07:14:11;100685.18;;;2.49;44.03
61436;BME280;47304;47.456;19.160;2023-02-27T07:16:38;100685.68;;;2.57;43.91
61436;BME280;47304;47.456;19.160;2023-02-27T07:19:05;100685.08;;;2.69;44.28
61436;BME280;47304;47.456;19.160;2023-02-27T07:21:34;100689.54;;;2.83;43.93
61436;BME280;47304;47.456;19.160;2023-02-27T07:24:00;100684.45;;;2.95;43.33
61436;BME280;47304;47.456;19.160;2023-02-27T07:26:27;100689.73;;;3.03;42.65
61436;BME280;47304;47.456;19.160;2023-02-27T07:28:54;100691.95;;;3.12;42.98
61436;BME280;47304;47.456;19.160;2023-02-27T07:31:20;100693.54;;;3.22;42.93
61436;BME280;47304;47.456;19.160;2023-02-27T07:33:47;100694.27;;;3.34;43.00
61436;BME280;47304;47.456;19.160;2023-02-27T07:36:14;100691.59;;;3.47;42.67
61436;BME280;47304;47.456;19.160;2023-02-27T07:38:40;100696.09;;;3.57;42.22
61436;BME280;47304;47.456;19.160;2023-02-27T07:41:07;100693.91;;;3.60;41.98
61436;BME280;47304;47.456;19.160;2023-02-27T07:43:41;100697.71;;;3.65;41.83
61436;BME280;47304;47.456;19.160;2023-02-27T07:46:07;100704.20;;;3.73;41.52
61436;BME280;47304;47.456;19.160;2023-02-27T07:48:34;100701.58;;;3.77;41.36
61436;BME280;47304;47.456;19.160;2023-02-27T07:51:01;100706.91;;;3.82;41.35
61436;BME280;47304;47.456;19.160;2023-02-27T07:53:27;100707.34;;;3.89;41.26
61436;BME280;47304;47.456;19.160;2023-02-27T07:55:54;100709.80;;;3.95;41.80
61436;BME280;47304;47.456;19.160;2023-02-27T07:58:21;100709.92;;;4.05;41.57
61436;BME280;47304;47.456;19.160;2023-02-27T08:00:47;100708.65;;;4.14;40.88
61436;BME280;47304;47.456;19.160;2023-02-27T08:03:14;100712.59;;;4.19;41.27
61436;BME280;47304;47.456;19.160;2023-02-27T08:05:40;100718.63;;;4.23;41.20
61436;BME280;47304;47.456;19.160;2023-02-27T08:08:07;100719.29;;;4.28;41.14
61436;BME280;47304;47.456;19.160;2023-02-27T08:10:33;100719.88;;;4.35;41.32
61436;BME280;47304;47.456;19.160;2023-02-27T08:13:00;100721.23;;;4.41;40.38
61436;BME280;47304;47.456;19.160;2023-02-27T08:15:26;100723.35;;;4.42;39.92
61436;BME280;47304;47.456;19.160;2023-02-27T08:17:53;100727.79;;;4.33;39.30
61436;BME280;47304;47.456;19.160;2023-02-27T08:20:19;100736.00;;;4.24;40.08
61436;BME280;47304;47.456;19.160;2023-02-27T08:22:46;100736.49;;;4.18;40.46
61436;BME280;47304;47.456;19.160;2023-02-27T08:25:12;100743.64;;;4.18;40.49
61436;BME280;47304;47.456;19.160;2023-02-27T08:27:39;100747.51;;;4.20;40.83
61436;BME280;47304;47.456;19.160;2023-02-27T08:30:07;100751.80;;;4.25;40.66
61436;BME280;47304;47.456;19.160;2023-02-27T08:32:35;100756.08;;;4.28;40.63
61436;BME280;47304;47.456;19.160;2023-02-27T08:35:02;100759.24;;;4.30;39.81
61436;BME280;47304;47.456;19.160;2023-02-27T08:37:28;100764.66;;;4.31;39.91
61436;BME280;47304;47.456;19.160;2023-02-27T08:39:55;100764.26;;;4.29;40.43
61436;BME280;47304;47.456;19.160;2023-02-27T08:42:22;100774.92;;;4.26;40.56
61436;BME280;47304;47.456;19.160;2023-02-27T08:44:50;100778.86;;;4.25;40.89
61436;BME280;47304;47.456;19.160;2023-02-27T08:47:16;100782.23;;;4.27;40.78
61436;BME280;47304;47.456;19.160;2023-02-27T08:49:43;100782.25;;;4.33;40.89
61436;BME280;47304;47.456;19.160;2023-02-27T08:52:09;100781.14;;;4.42;40.40
61436;BME280;47304;47.456;19.160;2023-02-27T08:54:36;100782.86;;;4.53;40.31
61436;BME280;47304;47.456;19.160;2023-02-27T08:57:03;100783.69;;;4.63;40.52
61436;BME280;47304;47.456;19.160;2023-02-27T08:59:30;100785.02;;;4.73;40.29
61436;BME280;47304;47.456;19.160;2023-02-27T09:01:57;100793.05;;;4.75;39.80
61436;BME280;47304;47.456;19.160;2023-02-27T09:04:24;100790.33;;;4.76;39.92
61436;BME280;47304;47.456;19.160;2023-02-27T09:06:51;100784.81;;;4.83;39.84
61436;BME280;47304;47.456;19.160;2023-02-27T09:09:18;100787.45;;;4.91;40.04
61436;BME280;47304;47.456;19.160;2023-02-27T09:11:44;100784.07;;;5.00;40.15
61436;BME280;47304;47.456;19.160;2023-02-27T09:14:11;100785.04;;;5.10;39.74
61436;BME280;47304;47.456;19.160;2023-02-27T09:16:38;100787.60;;;5.20;39.06
61436;BME280;47304;47.456;19.160;2023-02-27T09:19:04;100790.09;;;5.28;38.67
61436;BME280;47304;47.456;19.160;2023-02-27T09:21:31;100792.85;;;5.34;38.61
61436;BME280;47304;47.456;19.160;2023-02-27T09:23:57;100793.09;;;5.37;38.58
61436;BME280;47304;47.456;19.160;2023-02-27T09:26:32;100795.05;;;5.38;38.63
61436;BME280;47304;47.456;19.160;2023-02-27T09:29:11;100801.22;;;5.42;38.25
61436;BME280;47304;47.456;19.160;2023-02-27T09:31:37;100801.19;;;5.47;37.65
61436;BME280;47304;47.456;19.160;2023-02-27T09:34:04;100803.80;;;5.54;37.69
61436;BME280;47304;47.456;19.160;2023-02-27T09:36:30;100801.04;;;5.54;36.97
61436;BME280;47304;47.456;19.160;2023-02-27T09:38:57;100799.02;;;5.57;37.14
61436;BME280;47304;47.456;19.160;2023-02-27T09:44:30;100798.42;;;5.94;37.98
61436;BME280;47304;47.456;19.160;2023-02-27T09:47:15;100795.50;;;6.23;37.17
61436;BME280;47304;47.456;19.160;2023-02-27T09:49:48;100799.47;;;6.44;37.04
61436;BME280;47304;47.456;19.160;2023-02-27T09:52:17;100801.95;;;6.77;37.27
61436;BME280;47304;47.456;19.160;2023-02-27T09:54:44;100801.08;;;7.09;36.07
61436;BME280;47304;47.456;19.160;2023-02-27T09:57:16;100803.53;;;7.46;36.05
61436;BME280;47304;47.456;19.160;2023-02-27T09:59:52;100803.73;;;7.85;34.87
61436;BME280;47304;47.456;19.160;2023-02-27T10:05:01;100798.97;;;8.35;34.09
61436;BME280;47304;47.456;19.160;2023-02-27T10:07:42;100802.13;;;8.70;33.87
61436;BME280;47304;47.456;19.160;2023-02-27T10:15:38;100798.80;;;9.54;32.32
61436;BME280;47304;47.456;19.160;2023-02-27T10:18:19;100798.30;;;9.56;31.54
61436;BME280;47304;47.456;19.160;2023-02-27T10:21:06;100797.13;;;9.80;32.10
61436;BME280;47304;47.456;19.160;2023-02-27T10:23:50;100797.08;;;10.35;31.55
61436;BME280;47304;47.456;19.160;2023-02-27T10:26:21;100797.36;;;11.15;30.86
61436;BME280;47304;47.456;19.160;2023-02-27T10:28:48;100789.31;;;12.10;29.74
61436;BME280;47304;47.456;19.160;2023-02-27T10:31:18;100784.14;;;13.22;29.01
61436;BME280;47304;47.456;19.160;2023-02-27T10:33:47;100781.55;;;14.61;26.40
61436;BME280;47304;47.456;19.160;2023-02-27T10:36:14;100775.03;;;15.95;25.31
61436;BME280;47304;47.456;19.160;2023-02-27T10:39:04;100774.02;;;17.27;23.51
61436;BME280;47304;47.456;19.160;2023-02-27T10:41:30;100771.61;;;18.22;23.09
61436;BME280;47304;47.456;19.160;2023-02-27T10:43:58;100774.60;;;18.97;22.15
61436;BME280;47304;47.456;19.160;2023-02-27T10:46:31;100772.59;;;19.23;20.21
61436;BME280;47304;47.456;19.160;2023-02-27T10:48:59;100769.64;;;18.77;21.01
61436;BME280;47304;47.456;19.160;2023-02-27T10:51:33;100776.77;;;18.08;21.23
61436;BME280;47304;47.456;19.160;2023-02-27T10:54:21;100782.81;;;17.13;21.86
61436;BME280;47304;47.456;19.160;2023-02-27T10:57:19;100783.45;;;16.52;22.25
61436;BME280;47304;47.456;19.160;2023-02-27T10:59:52;100780.52;;;16.39;22.15
61436;BME280;47304;47.456;19.160;2023-02-27T11:02:22;100777.95;;;16.44;22.09
61436;BME280;47304;47.456;19.160;2023-02-27T11:04:53;100785.26;;;16.30;22.28
61436;BME280;47304;47.456;19.160;2023-02-27T11:07:30;100787.39;;;16.19;22.71
61436;BME280;47304;47.456;19.160;2023-02-27T11:10:22;100784.98;;;15.93;22.72
61436;BME280;47304;47.456;19.160;2023-02-27T11:13:04;100792.71;;;15.35;22.84
61436;BME280;47304;47.456;19.160;2023-02-27T11:15:34;100795.84;;;14.96;23.25
61436;BME280;47304;47.456;19.160;2023-02-27T11:18:26;100791.04;;;14.99;22.61
61436;BME280;47304;47.456;19.160;2023-02-27T11:21:39;100791.77;;;15.11;22.43
61436;BME280;47304;47.456;19.160;2023-02-27T11:24:04;100794.06;;;15.99;22.33
61436;BME280;47304;47.456;19.160;2023-02-27T11:26:34;100787.84;;;17.34;21.38
61436;BME280;47304;47.456;19.160;2023-02-27T11:29:06;100782.67;;;18.41;19.89
61436;BME280;47304;47.456;19.160;2023-02-27T11:31:34;100787.53;;;18.92;20.29
61436;BME280;47304;47.456;19.160;2023-02-27T11:34:02;100793.19;;;18.99;19.42
61436;BME280;47304;47.456;19.160;2023-02-27T11:36:47;100787.69;;;18.39;18.61
61436;BME280;47304;47.456;19.160;2023-02-27T11:39:24;100787.98;;;17.84;19.49
61436;BME280;47304;47.456;19.160;2023-02-27T11:41:53;100794.36;;;17.76;19.74
61436;BME280;47304;47.456;19.160;2023-02-27T11:44:24;100786.11;;;17.88;20.31
61436;BME280;47304;47.456;19.160;2023-02-27T11:47:20;100787.08;;;17.69;19.96
61436;BME280;47304;47.456;19.160;2023-02-27T11:55:46;100782.54;;;19.75;19.23
61436;BME280;47304;47.456;19.160;2023-02-27T11:58:19;100780.68;;;19.67;19.38
61436;BME280;47304;47.456;19.160;2023-02-27T12:06:56;100779.89;;;17.34;20.20
61436;BME280;47304;47.456;19.160;2023-02-27T12:09:32;100786.83;;;16.22;21.15
61436;BME280;47304;47.456;19.160;2023-02-27T12:12:04;100791.35;;;15.30;21.18
61436;BME280;47304;47.456;19.160;2023-02-27T12:14:41;100792.11;;;14.45;22.78
61436;BME280;47304;47.456;19.160;2023-02-27T12:17:24;100794.27;;;13.76;23.77
61436;BME280;47304;47.456;19.160;2023-02-27T12:20:20;100796.97;;;13.31;24.12
61436;BME280;47304;47.456;19.160;2023-02-27T12:22:50;100801.70;;;12.86;24.45
61436;BME280;47304;47.456;19.160;2023-02-27T12:25:21;100802.67;;;12.46;24.57
61436;BME280;47304;47.456;19.160;2023-02-27T12:28:02;100810.42;;;12.05;25.00
61436;BME280;47304;47.456;19.160;2023-02-27T12:30:35;100816.67;;;11.77;25.85
61436;BME280;47304;47.456;19.160;2023-02-27T12:33:27;100822.44;;;11.62;26.39
61436;BME280;47304;47.456;19.160;2023-02-27T12:36:01;100821.88;;;11.44;26.75
61436;BME280;47304;47.456;19.160;2023-02-27T12:38:29;100822.73;;;11.41;26.95
61436;BME280;47304;47.456;19.160;2023-02-27T12:41:11;100820.62;;;11.41;27.19
61436;BME280;47304;47.456;19.160;2023-02-27T12:43:55;100823.78;;;11.42;27.53
61436;BME280;47304;47.456;19.160;2023-02-27T12:49:55;100823.95;;;11.42;27.20
61436;BME280;47304;47.456;19.160;2023-02-27T12:52:34;100827.50;;;11.54;27.74
61436;BME280;47304;47.456;19.160;2023-02-27T12:55:12;100833.51;;;11.69;27.42
61436;BME280;47304;47.456;19.160;2023-02-27T13:01:14;100829.30;;;11.75;27.40
61436;BME280;47304;47.456;19.160;2023-02-27T13:04:00;100831.05;;;11.70;27.54
61436;BME280;47304;47.456;19.160;2023-02-27T13:06:48;100830.14;;;11.56;27.41
61436;BME280;47304;47.456;19.160;2023-02-27T13:09:38;100830.77;;;11.37;27.70
61436;BME280;47304;47.456;19.160;2023-02-27T13:21:04;100833.48;;;10.33;28.02
61436;BME280;47304;47.456;19.160;2023-02-27T13:23:08;100833.77;;;9.87;28.90
61436;BME280;47304;47.456;19.160;2023-02-27T13:25:45;100836.17;;;9.65;29.13
61436;BME280;47304;47.456;19.160;2023-02-27T13:28:17;100842.61;;;9.47;30.23
61436;BME280;47304;47.456;19.160;2023-02-27T13:31:13;100846.61;;;9.30;30.18
61436;BME280;47304;47.456;19.160;2023-02-27T13:36:55;100850.71;;;8.96;30.78
61436;BME280;47304;47.456;19.160;2023-02-27T13:49:58;100854.09;;;8.63;30.90
61436;BME280;47304;47.456;19.160;2023-02-27T13:52:30;100854.52;;;8.56;30.99
61436;BME280;47304;47.456;19.160;2023-02-27T13:54:58;100851.46;;;8.52;31.39
61436;BME280;47304;47.456;19.160;2023-02-27T13:57:37;100852.48;;;8.50;31.96
61436;BME280;47304;47.456;19.160;2023-02-27T14:00:16;100854.40;;;8.49;32.13
61436;BME280;47304;47.456;19.160;2023-02-27T14:02:57;100853.84;;;8.48;32.12
61436;BME280;47304;47.456;19.160;2023-02-27T14:05:41;100854.73;;;8.49;32.01
61436;BME280;47304;47.456;19.160;2023-02-27T14:10:40;100854.31;;;8.55;31.67
61436;BME280;47304;47.456;19.160;2023-02-27T14:21:54;100844.19;;;9.04;30.06
61436;BME280;47304;47.456;19.160;2023-02-27T14:24:37;100846.56;;;9.26;30.50
61436;BME280;47304;47.456;19.160;2023-02-27T14:27:24;100843.50;;;9.33;30.23
61436;BME280;47304;47.456;19.160;2023-02-27T14:29:55;100850.30;;;9.32;30.65
61436;BME280;47304;47.456;19.160;2023-02-27T14:32:25;100850.17;;;9.35;30.93
61436;BME280;47304;47.456;19.160;2023-02-27T14:34:54;100848.87;;;9.44;30.72
61436;BME280;47304;47.456;19.160;2023-02-27T14:37:22;100851.32;;;9.58;30.52
61436;BME280;47304;47.456;19.160;2023-02-27T14:39:54;100850.31;;;9.64;30.68
61436;BME280;47304;47.456;19.160;2023-02-27T14:45:14;100851.59;;;9.50;29.97
61436;BME280;47304;47.456;19.160;2023-02-27T14:47:45;100855.52;;;9.43;30.11
61436;BME280;47304;47.456;19.160;2023-02-27T14:50:33;100859.32;;;9.40;30.62
61436;BME280;47304;47.456;19.160;2023-02-27T14:53:01;100860.96;;;9.45;30.76
61436;BME280;47304;47.456;19.160;2023-02-27T14:55:29;100862.44;;;9.52;30.92
61436;BME280;47304;47.456;19.160;2023-02-27T15:00:38;100863.79;;;9.48;30.94
61436;BME280;47304;47.456;19.160;2023-02-27T15:03:21;100865.39;;;9.35;30.89
61436;BME280;47304;47.456;19.160;2023-02-27T15:05:48;100865.27;;;9.13;31.00
61436;BME280;47304;47.456;19.160;2023-02-27T15:08:20;100864.80;;;8.91;31.61
61436;BME280;47304;47.456;19.160;2023-02-27T15:10:47;100872.75;;;8.73;31.51
61436;BME280;47304;47.456;19.160;2023-02-27T15:13:22;100878.02;;;8.64;31.46
61436;BME280;47304;47.456;19.160;2023-02-27T15:15:49;100881.21;;;8.90;31.85
61436;BME280;47304;47.456;19.160;2023-02-27T15:18:20;100884.63;;;9.65;31.27